Flight Track Log - Related Links

Times and Time Zones

All times are in EDT time to prevent confusion due to time zone crossing. See the UPS1122 flight status page for this flight to view local times or setup timezone preferences in your user account.

Time Position Orientation Groundspeed Altitude Reporting Facility
EDT Latitude Longitude Course Direction KTS MPH feet Rate Location/Type
Thu 03:27:02 AM 39.8621 -75.2684 108° East 159 183 800  Level FlightAware ADS-B
Thu 03:27:06 AM 39.8610 -75.2726 251° West 159 183 1,100 3,750 Climbing FlightAware ADS-B
Thu 03:27:10 AM 39.8599 -75.2760 247° West 159 183 1,300 3,000 Climbing FlightAware ADS-B
Thu 03:27:14 AM 39.8585 -75.2796 243° Southwest 158 182 1,500 2,000 Climbing FlightAware ADS-B
Thu 03:27:22 AM 39.8556 -75.2866 242° Southwest 163 188 1,700 1,000 Climbing FlightAware ADS-B
Thu 03:27:32 AM 39.8515 -75.2951 238° Southwest 175 201 1,800 571 Climbing FlightAware ADS-B
Thu 03:27:43 AM 39.8463 -75.3049 235° Southwest 189 217 1,900 1,000 Climbing FlightAware ADS-B
Thu 03:27:56 AM 39.8391 -75.3183 235° Southwest 208 239 2,200 1,909 Climbing FlightAware ADS-B
Thu 03:28:05 AM 39.8344 -75.3275 236° Southwest 213 245 2,600 3,000 Climbing FlightAware ADS-B
Thu 03:28:14 AM 39.8292 -75.3380 237° Southwest 214 246 3,100 3,143 Climbing FlightAware ADS-B
Thu 03:28:26 AM 39.8231 -75.3509 238° Southwest 218 251 3,700 2,625 Climbing FlightAware ADS-B
Thu 03:28:30 AM 39.8208 -75.3554 236° Southwest 221 254 3,800 2,250 Climbing FlightAware ADS-B
Thu 03:28:34 AM 39.8183 -75.3595 232° Southwest 227 261 4,000 2,571 Climbing FlightAware ADS-B
Thu 03:28:37 AM 39.8160 -75.3626 226° Southwest 232 267 4,100 1,714 Climbing FlightAware ADS-B
Thu 03:28:41 AM 39.8127 -75.3660 218° Southwest 238 274 4,200 1,714 Climbing FlightAware ADS-B
Thu 03:28:44 AM 39.8097 -75.3686 214° Southwest 243 280 4,300 2,571 Climbing FlightAware ADS-B
Thu 03:28:48 AM 39.8054 -75.3715 207° Southwest 249 287 4,500 2,571 Climbing FlightAware ADS-B
Thu 03:28:51 AM 39.8019 -75.3733 202° Southwest 254 292 4,600 1,714 Climbing FlightAware ADS-B
Thu 03:28:55 AM 39.7980 -75.3748 196° South 261 300 4,700 1,714 Climbing FlightAware ADS-B
Thu 03:28:58 AM 39.7939 -75.3758 191° South 268 308 4,800 1,714 Climbing FlightAware ADS-B
Thu 03:29:02 AM 39.7894 -75.3761 183° South 271 312 4,900 2,571 Climbing FlightAware ADS-B
Thu 03:29:05 AM 39.7853 -75.3759 178° South 274 315 5,100 4,000 Climbing FlightAware ADS-B
Thu 03:29:08 AM 39.7810 -75.3750 171° South 277 319 5,300 3,429 Climbing FlightAware ADS-B
Thu 03:29:12 AM 39.7765 -75.3734 165° South 278 320 5,500 3,000 Climbing FlightAware ADS-B
Thu 03:29:16 AM 39.7719 -75.3709 157° South 281 323 5,700 3,429 Climbing FlightAware ADS-B
Thu 03:29:19 AM 39.7680 -75.3681 151° Southeast 283 326 5,900 3,429 Climbing FlightAware ADS-B
Thu 03:29:23 AM 39.7637 -75.3643 146° Southeast 286 329 6,100 3,429 Climbing FlightAware ADS-B
Thu 03:29:26 AM 39.7604 -75.3607 140° Southeast 289 333 6,300 3,000 Climbing FlightAware ADS-B
Thu 03:29:29 AM 39.7574 -75.3567 134° Southeast 291 335 6,400 3,000 Climbing FlightAware ADS-B
Thu 03:29:34 AM 39.7532 -75.3497 128° Southeast 293 337 6,700 2,667 Climbing FlightAware ADS-B
Thu 03:29:38 AM 39.7508 -75.3445 121° Southeast 296 341 6,800 2,571 Climbing FlightAware ADS-B
Thu 03:29:41 AM 39.7489 -75.3398 118° Southeast 297 342 7,000 3,429 Climbing FlightAware ADS-B
Thu 03:29:45 AM 39.7470 -75.3334 111° Southeast 299 344 7,200 3,000 Climbing FlightAware ADS-B
Thu 03:29:49 AM 39.7454 -75.3258 105° East 299 344 7,400 2,571 Climbing FlightAware ADS-B
Thu 03:29:52 AM 39.7447 -75.3205 100° East 298 343 7,500 3,429 Climbing FlightAware ADS-B
Thu 03:29:56 AM 39.7443 -75.3125 94° East 297 342 7,800 3,000 Climbing FlightAware ADS-B
Thu 03:30:00 AM 39.7445 -75.3068 87° East 297 342 7,900 2,571 Climbing FlightAware ADS-B
Thu 03:30:03 AM 39.7451 -75.3004 83° East 299 344 8,100 3,000 Climbing FlightAware ADS-B
Thu 03:30:10 AM 39.7469 -75.2880 79° East 301 346 8,400 2,571 Climbing FlightAware ADS-B
Thu 03:30:24 AM 39.7513 -75.2641 77° East 308 354 9,000 2,526 Climbing FlightAware ADS-B
Thu 03:30:29 AM 39.7531 -75.2535 78° East 311 358 9,200 2,769 Climbing FlightAware ADS-B
Thu 03:30:37 AM 39.7549 -75.2386 81° East 317 365 9,600 2,462 Climbing FlightAware ADS-B
Thu 03:31:08 AM 39.7586 -75.1798 85° East 336 387 10,800 1,770 Climbing FlightAware ADS-B
Thu 03:31:38 AM 39.7620 -75.1136 86° East 375 432 11,400 1,404 Climbing FlightAware ADS-B
Thu 03:31:55 AM 39.7645 -75.0750 85° East 390 449 11,900 2,204 Climbing FlightAware ADS-B
Thu 03:32:27 AM 39.7706 -74.9988 84° East 404 465 13,200 2,381 Climbing FlightAware ADS-B
Thu 03:32:58 AM 39.7771 -74.9227 84° East 416 479 14,400 2,400 Climbing FlightAware ADS-B
Thu 03:33:22 AM 39.7821 -74.8638 84° East 424 488 15,400 2,571 Climbing FlightAware ADS-B
Thu 03:33:33 AM 39.7861 -74.8356 80° East 427 491 15,900 2,400 Climbing FlightAware ADS-B
Thu 03:33:42 AM 39.7912 -74.8146 72° East 428 493 16,200 2,667 Climbing FlightAware ADS-B
Thu 03:33:51 AM 39.7985 -74.7929 66° East 428 493 16,700 2,824 Climbing FlightAware ADS-B
Thu 03:33:59 AM 39.8068 -74.7742 60° Northeast 427 491 17,000 2,571 Climbing FlightAware ADS-B
Thu 03:34:12 AM 39.8229 -74.7477 52° Northeast 425 489 17,600 2,609 Climbing FlightAware ADS-B
Thu 03:34:22 AM 39.8366 -74.7309 43° Northeast 424 488 18,000 2,850 Climbing FlightAware ADS-B
Thu 03:34:52 AM 39.8850 -74.6849 36° Northeast 428 493 19,500 2,852 Climbing FlightAware ADS-B
Thu 03:35:23 AM 39.9346 -74.6392 35° Northeast 435 501 20,900 2,762 Climbing FlightAware ADS-B
Thu 03:35:55 AM 39.9868 -74.5906 35° Northeast 435 501 22,400 2,032 Climbing FlightAware ADS-B
Thu 03:36:25 AM 40.0368 -74.5435 36° Northeast 430 495 23,000 581 Climbing FlightAware ADS-B
Thu 03:36:57 AM 40.0886 -74.4947 36° Northeast 430 495 23,000  Level FlightAware ADS-B
Thu 03:37:27 AM 40.1369 -74.4490 36° Northeast 430 495 23,000  Level FlightAware ADS-B
Thu 03:37:58 AM 40.1859 -74.4026 36° Northeast 430 495 23,000  Level FlightAware ADS-B
Thu 03:38:28 AM 40.2350 -74.3561 36° Northeast 430 495 23,000  Level FlightAware ADS-B
Thu 03:38:59 AM 40.2836 -74.3098 36° Northeast 429 494 23,000  Level FlightAware ADS-B
Thu 03:39:29 AM 40.3325 -74.2631 36° Northeast 430 495 23,000  Level FlightAware ADS-B
Thu 03:39:59 AM 40.3814 -74.2165 36° Northeast 430 495 23,000  Level FlightAware ADS-B
Thu 03:40:29 AM 40.4296 -74.1705 36° Northeast 430 495 23,000  Level FlightAware ADS-B
Thu 03:40:59 AM 40.4782 -74.1242 36° Northeast 430 495 23,000  Level FlightAware ADS-B
Thu 03:41:30 AM 40.5273 -74.0777 36° Northeast 431 496 23,000  Level FlightAware ADS-B
Thu 03:42:01 AM 40.5772 -74.0304 36° Northeast 431 496 23,000  Level FlightAware ADS-B
Thu 03:42:31 AM 40.6258 -73.9843 36° Northeast 433 498 23,000  Level FlightAware ADS-B
Thu 03:43:01 AM 40.6751 -73.9374 36° Northeast 433 498 23,000  Level FlightAware ADS-B
Thu 03:43:31 AM 40.7239 -73.8909 36° Northeast 434 499 23,000  Level FlightAware ADS-B
Thu 03:44:01 AM 40.7733 -73.8435 36° Northeast 434 499 23,000  Level FlightAware ADS-B
Thu 03:44:32 AM 40.8228 -73.7960 36° Northeast 435 501 23,000  Level FlightAware ADS-B
Thu 03:45:03 AM 40.8734 -73.7473 36° Northeast 437 503 23,000  Level FlightAware ADS-B
Thu 03:45:33 AM 40.9231 -73.6992 36° Northeast 437 503 23,000  Level FlightAware ADS-B
Thu 03:46:03 AM 40.9720 -73.6516 36° Northeast 437 503 23,000 -800 Level FlightAware ADS-B
Thu 03:46:33 AM 41.0209 -73.6038 36° Northeast 433 498 22,200 -2,066 Descending FlightAware ADS-B
Thu 03:47:04 AM 41.0701 -73.5555 37° Northeast 436 502 20,900 -2,262 Descending FlightAware ADS-B
Thu 03:47:34 AM 41.1191 -73.5075 36° Northeast 428 493 19,900 -2,100 Descending FlightAware ADS-B
Thu 03:48:04 AM 41.1668 -73.4604 37° Northeast 422 486 18,800 -1,967 Descending FlightAware ADS-B
Thu 03:48:35 AM 41.2136 -73.4142 37° Northeast 413 475 17,900 -1,672 Descending FlightAware ADS-B
Thu 03:49:05 AM 41.2597 -73.3687 37° Northeast 400 460 17,100 -1,810 Descending FlightAware ADS-B
Thu 03:49:38 AM 41.3074 -73.3216 37° Northeast 389 448 16,000 -2,000 Descending FlightAware ADS-B
Thu 03:50:08 AM 41.3493 -73.2799 37° Northeast 369 425 15,000 -1,800 Descending FlightAware ADS-B
Thu 03:50:38 AM 41.3883 -73.2410 37° Northeast 342 394 14,200 -286 Descending FlightAware ADS-B
Thu 03:51:32 AM 41.4440 -73.1880 35° Northeast 347 399 14,600 231 Climbing FlightAware ADS-B
Thu 03:52:22 AM 41.4990 -73.1340 36° Northeast 347 399 14,600 -2,500 Level FlightAware ADS-B
Thu 03:53:08 AM 41.5506 -73.0392 36° Northeast 324 373 10,600 -2,717 Descending Boston Center
Thu 03:54:08 AM 41.5989 -72.9536 53° Northeast 318 366 9,800 -900 Descending Boston Center
Thu 03:55:08 AM 41.6597 -72.8514 51° Northeast 313 360 8,800 -900 Descending Boston Center
Thu 03:56:08 AM 41.7081 -72.7708 51° Northeast 313 360 8,000 -900 Descending Boston Center
Thu 03:57:08 AM 41.7686 -72.6739 50° Northeast 313 360 7,000 -1,050 Descending Boston Center
Thu 03:58:08 AM 41.8208 -72.6017 46° Northeast 301 346 5,900 -1,100 Descending Boston Center
Thu 03:59:08 AM 41.8836 -72.5264 42° Northeast 282 325 4,800 -800 Descending Boston Center
Thu 04:00:08 AM 41.9272 -72.4708 43° Northeast 259 298 4,300 -600 Descending Boston Center
Thu 04:01:08 AM 41.9731 -72.4067 46° Northeast 223 257 3,600 -650 Descending Boston Center
Thu 04:02:08 AM 42.0086 -72.3647 41° Northeast 179 206 3,000 -300 Descending Boston Center
Thu 04:03:08 AM 42.0378 -72.3925 325° Northwest 118 136 3,000  Level Boston Center

Login

Don't have an account? Register now (free) for customized features, flight alerts, and more!